Lunes, 24 de Noviembre del 2014

portal contactenos mapa del sitio buscar Revisar Correo Corporativo

Reporte METAR Consolidado

|| Reporte TAF Consolidado ||

Informe METAR emitido cada hora.

METAR

ESTACIÓN

AEROPUERTO

HORA UTC

DESCRIPCIÓN

SLGM

Guayaramerín

10-49S|65-20W

13:00

SLGM 241300Z 36005KT 9999 SCT008 BKN080 25/24 Q1013 A2992 HR94=

SLRI

Riberalta

11-00S|66-04W

13:00

SLRI 241300Z 00000KT 8000 VCSH BKN004 OVC070 25/23 Q1012 A2991 HR92 SH N/SE/NW=

SLCO

Cobija

11-02S|68-47W

13:00

SLCO 241300Z 04005KT 9999 BKN005 OVC070 26/24 Q1012 A2989 984.6 HR91=

SLJO

San Joaquin

13-03S|64-39W

13:00

SLJO 241300Z 00000KT 9999 BKN080 26/23 Q1010 A2985 HR85 RWY NML=

SLRA

San Ramón

13-15S|64-36W

13:00

SLRA 241300Z 32006KT 9999 FEW015 BKN080 25/23 Q1010 A2983 HR89 RWY WET OPR C206=

SLMG

San Magdalena

13-15S|64-03W

13:00

SLMG 241300Z 32004KT 9999 FEW010 BKN080 25/23 Q1010 A2985 HR94 RWY HUM OPR=

SLBU

Baures

13-39S|63-42W

13:00

SLBU 241300Z 35008KT 9999 FEW015 BKN080 28/24 Q1013 A2990 HR79 RWY NML=

SLSA

Santa Ana de Yacuma

13-45S|65-26W

13:00

SLSA 241300Z 00000KT 9999 BKN015 BKN080 24/23 Q1010 A2983 HR92=

SLSR

Santa Rosa

14-04S|66-47W

13:00

SLSR 241300Z 12003KT 8000 -RA BKN006 OVC070 23/23 Q1008 A2977 HR100 RWY OPR C206=

SLRY

Reyes

14-18S|67-21W

13:00

SLRY 241300Z 00000KT 9999 BKN012 OVC080 25/23 Q1012 A2991 HR92 RWY OPR 1 000M=

SLRQ

Rurrenabaque

14-25S|67-29W

13:00

SLRQ 241300Z 00000KT 9999 SCT013 BKN020 BKN070 25/24 Q1011 A2987 HR92=

SLAP

Apolo

14-44S|68-24W

-

Mensaje no Recibido

SLTR

Trinidad

14-49S|64-54W

13:00

SLTR 241300Z 00000KT 9999 SCT012 SCT080 25/23 Q1011 A2988 993.3 HR88 NOSIG=

SLSB

San Borja

14-51S|66-44W

13:00

SLSB 241300Z 00000KT 9999 SCT015 BKN080 25/23 Q1012 A2989 HR89 RWY WET OPR C210=

SLSM

San Ignacio de Moxos

14-57S|65-38W

13:00

SLSM 241300Z 00000KT 9999 SCT017 BKN080 26/22 Q1010 A2984 HR86 RWY OPR C206=

SLAS

Ascención de Guarayos

15-55S|63-09W

13:00

SLAS 241300Z 34005KT 9999 OVC012 24/22 Q1013 A2992 HR92 RWY NML =

SLCP

Concepción

16-08S|62-01W

13:00

SLCP 241300Z 33005KT 9999 BKN007 OVC070 23/22 Q1014 A2994 HR96 RWY WET OPR=

SLLP

Internaciónal El Alto

16-08S|68-10W

13:00

SLLP 241300Z 27007KT 9999 SCT015 BKN200 10/04 Q1036 A3060 626.9 P93// HZ S/SW FU AC HR65 NOSIG=

SLJV

San Javier

16-16S|62-28W

13:00

SLJV 241300Z 00000KT 9999 BKN013 23/22 Q1011 A2985 HR89 RWY NML =

SLTI

San Matías

16-20S|58-24W

13:00

SLTI 241300Z 36004KT 9999 FEW013 BKN070 29/24 Q1016 A3000 HR79 RWY NML=

SLSI

San Ignacio de Velasco

16-23S|60-57W

13:00

SLSI 241300Z 33005KT 9999 BKN015 BKN200 25/24 Q1012 A2988 HR92 RWY NML=

SLCB

Cochabamba

17-25S|66-10W

13:00

SLCB 241300Z 00000KT 9000 FEW027 BKN200 20/09 Q1022 A3019 749.3 HR50 FU AC NOSIG=

SLCN

Charaña

17-35S|69-25W

-

Mensaje no Recibido

SLVR

Internaciónal Viru Viru

17-38S|63-08W

13:00

SLVR 241300Z 33010KT 9999 FEW017 BKN070 BKN200 26/21 Q1011 A2986 HR77 NOSIG=

SLET

El Trompillo

17-48S|63-10W

13:00

SLET 241300Z 32017KT 9999 FEW017 SCT070 26/20 Q1010 A2984 HR72 NOSIG=

SLJE

San José de Chiquitos

17-49S|60-44W

13:00

SLJE 241300Z 36012KT 9999 BKN012 29/23 Q1013 A2991 HR70 RWY NML =

SLOR

Oruro

17-57S|67-04W

13:00

SLOR 241300Z 00000KT 9999 FEW016 12/04 Q1033 A3051 654.7 FU AC/CI HR59=

SLRB

Roboré

18-19S|59-45W

13:00

SLRB 241300Z 36015KT 9999 SCT015 27/21 Q1013 A2991 HR72 RWY NML =

SLVG

Valle Grande

18-28S|64-05W

13:00

SLVG 241300Z 34010KT 9999 BKN020 16/12 Q1021 A3015 HR76 RWY NML =

SLPS

Puerto Suárez

18-58S|57-49W

13:00

SLPS 241300Z 36006KT 9999 FEW015 29/22 Q1010 A2983 HR68 AC CI=

SLSU

Sucre

19-00S|65-17W

13:00

SLSU 241300Z 00000KT 9999 SCT012 SCT070 15/10 Q1025 A3029 HR72=

SLPO

Potosí

19-32S|65-43W

13:00

SLPO 241300Z 24004KT 9999 NSC 10/03 Q1033 A3050 HR57=

SLAG

Monteagudo

19-49S|63-58W

13:00

SLAG 241300Z 09006KT 9999 NSC 23/17 Q1013 A2991 HR69 CI RWY CLSD=

SLCA

Camiri

20-00S|63-31W

13:00

SLCA 241300Z 36010KT 9999 NSC 28/16 Q1011 A2985 HR49 RWY NML=

SLUY

Uyuni

20-27S|62-52W

13:00

SLUY 241300Z 00000KT 9999 FEW012 BKN200 09/00 Q1032 A3050 657.5 HR60=

SLVM

Villamontes

21-15S|63-24W

13:00

SLVM 241300Z 36015KT 9999 FEW020 SCT200 27/20 Q1006 A2971 HR66=

SLTJ

Tarija

21-33S|64-42W

13:00

RTD SLTJ 241300Z 00000KT 9999 NSC 21/15 Q1013 A2994 HR67 CI=

SLYA

Yacuiba

21-57S|63-39W

13:00

SLYA 241300Z 15010KT 9999 SCT020 BKN200 25/21 Q1008 A2977 HR79=

SLBJ

Bermejo

22-46S|64-18W

13:00

SLBJ 241300Z 18004KT 9999 SCT013 OVC070 23/21 Q1005 A2968 HR92=